Berkley, MA

8:50 PM EDT on April 27, 2015 (GMT -0400)
Rock of Berkley Weather | | Change Station
CLOSE
Current Station
Personal Weather Station
Location: Berkley, MA
Elevation: 83 ft
Nearby Weather Stations

Elev 83 ft 41.85 °N, 71.05 °W | Updated 9 seconds ago

Overcast
Overcast
45.9 °F
Feels Like 46 °F
N
0.0
Wind Variable Wind from NNE
Gusts 0.0 mph

Today
High -- | Low -- °F
--% Chance of Precip.
Yesterday
High -- | Low -- °F
Precip. -- in
5:46 AM 7:38 PM
Waxing Gibbous, 69% visible
Pressure 29.58 in
Visibility 10.0 miles
Clouds Overcast 7000 ft
Windchill 46 °F
Dew Point 44 °F
Humidity 95%
Rainfall 0.02 in
Snow Depth Not available.
UV 0 out of 12
Pollen 9.30 out of 12
Air Quality Not available.
Flu Activity Widespread
METAR KTAN 272352Z AUTO 29003KT 10SM OVC070 09/06 A2958 RMK AO2 RAB05E19 SLP016 P0000 60000 T00940061 10150 20094 50017

More Conditions Fewer Conditions

Pressure 29.58 in
Visibility 10.0 miles
Clouds Overcast 7000 ft
Windchill 46 °F
Dew Point 44 °F
Humidity 95%
Rainfall 0.02 in
Snow Depth Not available.
UV 0 out of 12
Pollen 9.30 out of 12
Air Quality Not available.
Flu Activity Widespread
METAR KTAN 272352Z AUTO 29003KT 10SM OVC070 09/06 A2958 RMK AO2 RAB05E19 SLP016 P0000 60000 T00940061 10150 20094 50017

More Conditions Fewer Conditions

10-Day Weather Forecast

Almanac

Astronomy

Apr. 27, 2015 Rise Set
Actual Time
Civil Twilight
Nautical Twilight
Astronomical Twilight
Moon
Length of Visible Light
Length of Day
Tomorrow will be .
, % of the Moon is Illuminated

Today's Extremes

State Highs State Lows

Community

WunderPhotos

Upload Photos

1,817,497 photos uploaded!

WunderBlogs® & News

Nearby

Air Quality

  Air Quality AQ Index Pollutant
Not available.

Snow Depth

Station Depth Elevation

Earthquake Activity

City Distance Mag. Time & Date
Minimum magnitude displayed is 2.5.

Coastal Water Temperatures

Place Temperature

Stations

Nearby Weather Stations

Station Location Temp. Windchill Dew Point Humidity Wind Precip. Elev Updated Type